sensor_id;sensor_type;location;lat;lon;timestamp;temperature;humidity
28725;DHT22;43472;48.980;9.646;2023-06-22T00:00:58;19.70;99.90
28725;DHT22;43472;48.980;9.646;2023-06-22T00:06:01;19.30;99.90
28725;DHT22;43472;48.980;9.646;2023-06-22T00:11:03;19.30;99.90
28725;DHT22;43472;48.980;9.646;2023-06-22T00:16:06;19.50;99.90
28725;DHT22;43472;48.980;9.646;2023-06-22T00:21:08;19.60;99.90
28725;DHT22;43472;48.980;9.646;2023-06-22T00:26:10;19.50;99.90
28725;DHT22;43472;48.980;9.646;2023-06-22T00:31:14;19.40;99.90
28725;DHT22;43472;48.980;9.646;2023-06-22T00:36:16;19.10;99.90
28725;DHT22;43472;48.980;9.646;2023-06-22T00:41:19;19.00;99.90
28725;DHT22;43472;48.980;9.646;2023-06-22T00:46:22;19.00;99.90
28725;DHT22;43472;48.980;9.646;2023-06-22T00:51:26;19.00;99.90
28725;DHT22;43472;48.980;9.646;2023-06-22T00:56:28;19.00;99.90
28725;DHT22;43472;48.980;9.646;2023-06-22T01:01:31;18.90;99.90
28725;DHT22;43472;48.980;9.646;2023-06-22T01:06:40;18.60;99.90
28725;DHT22;43472;48.980;9.646;2023-06-22T01:11:45;18.50;99.90
28725;DHT22;43472;48.980;9.646;2023-06-22T01:16:52;18.40;99.90
28725;DHT22;43472;48.980;9.646;2023-06-22T01:21:56;18.50;99.90
28725;DHT22;43472;48.980;9.646;2023-06-22T01:32:34;18.70;99.90
28725;DHT22;43472;48.980;9.646;2023-06-22T01:37:37;18.50;99.90
28725;DHT22;43472;48.980;9.646;2023-06-22T01:42:40;18.40;99.90
28725;DHT22;43472;48.980;9.646;2023-06-22T01:47:45;18.60;99.90
28725;DHT22;43472;48.980;9.646;2023-06-22T01:52:48;18.40;99.90
28725;DHT22;43472;48.980;9.646;2023-06-22T01:57:50;18.40;99.90
28725;DHT22;43472;48.980;9.646;2023-06-22T02:03:03;18.40;99.90
28725;DHT22;43472;48.980;9.646;2023-06-22T02:08:15;18.50;99.90
28725;DHT22;43472;48.980;9.646;2023-06-22T02:13:20;18.30;99.90
28725;DHT22;43472;48.980;9.646;2023-06-22T02:18:23;18.20;99.90
28725;DHT22;43472;48.980;9.646;2023-06-22T02:23:25;18.00;99.90
28725;DHT22;43472;48.980;9.646;2023-06-22T02:28:27;18.10;99.90
28725;DHT22;43472;48.980;9.646;2023-06-22T02:33:31;17.90;99.90
28725;DHT22;43472;48.980;9.646;2023-06-22T02:38:33;17.90;99.90
28725;DHT22;43472;48.980;9.646;2023-06-22T02:43:36;18.00;99.90
28725;DHT22;43472;48.980;9.646;2023-06-22T02:48:40;17.80;99.90
28725;DHT22;43472;48.980;9.646;2023-06-22T02:53:43;18.00;99.90
28725;DHT22;43472;48.980;9.646;2023-06-22T02:58:47;17.90;99.90
28725;DHT22;43472;48.980;9.646;2023-06-22T03:03:49;18.10;99.90
28725;DHT22;43472;48.980;9.646;2023-06-22T03:08:51;18.20;99.90
28725;DHT22;43472;48.980;9.646;2023-06-22T03:13:54;18.10;99.90
28725;DHT22;43472;48.980;9.646;2023-06-22T03:18:57;18.20;99.90
28725;DHT22;43472;48.980;9.646;2023-06-22T03:24:00;18.00;99.90
28725;DHT22;43472;48.980;9.646;2023-06-22T03:29:02;17.90;99.90
28725;DHT22;43472;48.980;9.646;2023-06-22T03:34:04;17.80;99.90
28725;DHT22;43472;48.980;9.646;2023-06-22T03:39:08;17.90;99.90
28725;DHT22;43472;48.980;9.646;2023-06-22T03:44:10;18.20;99.90
28725;DHT22;43472;48.980;9.646;2023-06-22T03:49:15;18.30;99.90
28725;DHT22;43472;48.980;9.646;2023-06-22T03:54:17;18.40;99.90
28725;DHT22;43472;48.980;9.646;2023-06-22T03:59:19;18.30;99.90
28725;DHT22;43472;48.980;9.646;2023-06-22T04:04:21;18.20;99.90
28725;DHT22;43472;48.980;9.646;2023-06-22T04:09:24;18.20;99.90
28725;DHT22;43472;48.980;9.646;2023-06-22T04:14:27;18.30;99.90
28725;DHT22;43472;48.980;9.646;2023-06-22T04:19:29;18.30;99.90
28725;DHT22;43472;48.980;9.646;2023-06-22T04:24:31;18.50;99.90
28725;DHT22;43472;48.980;9.646;2023-06-22T04:29:33;18.30;99.90
28725;DHT22;43472;48.980;9.646;2023-06-22T04:34:35;18.20;99.90
28725;DHT22;43472;48.980;9.646;2023-06-22T04:39:37;18.10;99.90
28725;DHT22;43472;48.980;9.646;2023-06-22T04:44:39;18.10;99.90
28725;DHT22;43472;48.980;9.646;2023-06-22T04:49:41;18.10;99.90
28725;DHT22;43472;48.980;9.646;2023-06-22T04:54:46;18.20;99.90
28725;DHT22;43472;48.980;9.646;2023-06-22T04:59:53;18.40;99.90
28725;DHT22;43472;48.980;9.646;2023-06-22T05:04:55;18.50;99.90
28725;DHT22;43472;48.980;9.646;2023-06-22T05:09:59;18.80;99.90
28725;DHT22;43472;48.980;9.646;2023-06-22T05:15:01;19.00;99.90
28725;DHT22;43472;48.980;9.646;2023-06-22T05:20:03;19.30;99.90
28725;DHT22;43472;48.980;9.646;2023-06-22T05:25:09;19.30;99.90
28725;DHT22;43472;48.980;9.646;2023-06-22T05:30:30;19.30;99.90
28725;DHT22;43472;48.980;9.646;2023-06-22T05:35:50;19.50;99.90
28725;DHT22;43472;48.980;9.646;2023-06-22T05:40:53;19.70;99.90
28725;DHT22;43472;48.980;9.646;2023-06-22T05:45:56;20.10;99.90
28725;DHT22;43472;48.980;9.646;2023-06-22T05:51:02;20.30;99.90
28725;DHT22;43472;48.980;9.646;2023-06-22T05:56:07;20.50;99.90
28725;DHT22;43472;48.980;9.646;2023-06-22T06:01:09;20.70;99.90
28725;DHT22;43472;48.980;9.646;2023-06-22T06:06:11;20.90;99.90
28725;DHT22;43472;48.980;9.646;2023-06-22T06:11:14;21.10;99.90
28725;DHT22;43472;48.980;9.646;2023-06-22T06:16:16;21.20;99.90
28725;DHT22;43472;48.980;9.646;2023-06-22T06:21:20;21.40;99.90
28725;DHT22;43472;48.980;9.646;2023-06-22T06:26:22;21.50;99.90
28725;DHT22;43472;48.980;9.646;2023-06-22T06:31:29;21.70;99.90
28725;DHT22;43472;48.980;9.646;2023-06-22T06:36:33;21.80;99.90
28725;DHT22;43472;48.980;9.646;2023-06-22T06:41:35;21.90;99.90
28725;DHT22;43472;48.980;9.646;2023-06-22T06:46:37;22.10;99.90
28725;DHT22;43472;48.980;9.646;2023-06-22T06:51:40;22.10;99.90
28725;DHT22;43472;48.980;9.646;2023-06-22T06:56:42;22.00;99.90
28725;DHT22;43472;48.980;9.646;2023-06-22T07:01:50;22.00;99.90
28725;DHT22;43472;48.980;9.646;2023-06-22T07:06:52;21.90;99.90
28725;DHT22;43472;48.980;9.646;2023-06-22T07:11:56;21.90;99.90
28725;DHT22;43472;48.980;9.646;2023-06-22T07:16:58;22.00;99.90
28725;DHT22;43472;48.980;9.646;2023-06-22T07:22:00;22.00;99.90
28725;DHT22;43472;48.980;9.646;2023-06-22T07:27:03;22.40;99.90
28725;DHT22;43472;48.980;9.646;2023-06-22T07:32:05;22.00;99.90
28725;DHT22;43472;48.980;9.646;2023-06-22T07:37:07;22.10;99.90
28725;DHT22;43472;48.980;9.646;2023-06-22T07:42:09;23.00;99.90
28725;DHT22;43472;48.980;9.646;2023-06-22T07:47:11;22.70;99.90
28725;DHT22;43472;48.980;9.646;2023-06-22T07:52:15;22.50;99.90
28725;DHT22;43472;48.980;9.646;2023-06-22T08:02:20;22.70;99.90
28725;DHT22;43472;48.980;9.646;2023-06-22T08:07:23;22.80;99.90
28725;DHT22;43472;48.980;9.646;2023-06-22T08:12:25;22.80;99.90
28725;DHT22;43472;48.980;9.646;2023-06-22T08:17:27;22.80;99.90
28725;DHT22;43472;48.980;9.646;2023-06-22T08:22:31;22.80;99.90
28725;DHT22;43472;48.980;9.646;2023-06-22T08:27:36;23.20;99.90
28725;DHT22;43472;48.980;9.646;2023-06-22T08:32:38;23.20;99.90
28725;DHT22;43472;48.980;9.646;2023-06-22T08:37:40;23.00;99.90
28725;DHT22;43472;48.980;9.646;2023-06-22T08:42:44;23.20;99.90
28725;DHT22;43472;48.980;9.646;2023-06-22T08:47:47;23.00;99.90
28725;DHT22;43472;48.980;9.646;2023-06-22T08:52:49;23.70;99.90
28725;DHT22;43472;48.980;9.646;2023-06-22T08:57:51;23.50;99.90
28725;DHT22;43472;48.980;9.646;2023-06-22T09:02:53;24.00;99.90
28725;DHT22;43472;48.980;9.646;2023-06-22T09:07:56;23.30;99.90
28725;DHT22;43472;48.980;9.646;2023-06-22T09:13:00;23.80;99.90
28725;DHT22;43472;48.980;9.646;2023-06-22T09:18:05;23.60;99.90
28725;DHT22;43472;48.980;9.646;2023-06-22T09:23:07;24.40;99.90
28725;DHT22;43472;48.980;9.646;2023-06-22T09:28:09;22.90;99.90
28725;DHT22;43472;48.980;9.646;2023-06-22T09:33:12;23.10;99.90
28725;DHT22;43472;48.980;9.646;2023-06-22T09:38:14;23.50;99.90
28725;DHT22;43472;48.980;9.646;2023-06-22T09:43:16;23.20;99.90
28725;DHT22;43472;48.980;9.646;2023-06-22T09:48:18;23.30;99.90
28725;DHT22;43472;48.980;9.646;2023-06-22T09:53:20;23.90;99.90
28725;DHT22;43472;48.980;9.646;2023-06-22T09:58:22;24.60;99.90
28725;DHT22;43472;48.980;9.646;2023-06-22T10:03:24;25.00;99.90
28725;DHT22;43472;48.980;9.646;2023-06-22T10:08:26;25.30;99.90
28725;DHT22;43472;48.980;9.646;2023-06-22T10:13:29;24.50;99.90
28725;DHT22;43472;48.980;9.646;2023-06-22T10:18:31;24.10;99.90
28725;DHT22;43472;48.980;9.646;2023-06-22T10:23:36;26.40;99.90
28725;DHT22;43472;48.980;9.646;2023-06-22T10:28:38;25.80;99.90
28725;DHT22;43472;48.980;9.646;2023-06-22T10:33:40;26.20;99.90
28725;DHT22;43472;48.980;9.646;2023-06-22T10:38:43;26.60;99.90
28725;DHT22;43472;48.980;9.646;2023-06-22T10:43:45;25.20;99.90
28725;DHT22;43472;48.980;9.646;2023-06-22T10:48:47;24.70;99.90
28725;DHT22;43472;48.980;9.646;2023-06-22T10:53:50;24.30;99.90
28725;DHT22;43472;48.980;9.646;2023-06-22T10:58:52;23.70;99.90
28725;DHT22;43472;48.980;9.646;2023-06-22T11:03:54;24.70;99.90
28725;DHT22;43472;48.980;9.646;2023-06-22T11:08:56;24.30;99.90
28725;DHT22;43472;48.980;9.646;2023-06-22T11:14:12;23.90;99.90
28725;DHT22;43472;48.980;9.646;2023-06-22T11:19:15;24.00;99.90
28725;DHT22;43472;48.980;9.646;2023-06-22T11:24:18;24.40;99.90
28725;DHT22;43472;48.980;9.646;2023-06-22T11:29:20;24.80;99.90
28725;DHT22;43472;48.980;9.646;2023-06-22T11:34:38;24.30;99.90
28725;DHT22;43472;48.980;9.646;2023-06-22T11:39:42;24.20;99.90
28725;DHT22;43472;48.980;9.646;2023-06-22T11:44:48;24.40;99.90
28725;DHT22;43472;48.980;9.646;2023-06-22T11:49:51;24.70;99.90
28725;DHT22;43472;48.980;9.646;2023-06-22T11:54:53;24.20;99.90
28725;DHT22;43472;48.980;9.646;2023-06-22T11:59:55;23.80;99.90
28725;DHT22;43472;48.980;9.646;2023-06-22T12:05:00;23.70;99.90
28725;DHT22;43472;48.980;9.646;2023-06-22T12:10:05;24.00;99.90
28725;DHT22;43472;48.980;9.646;2023-06-22T12:15:09;23.80;99.90
28725;DHT22;43472;48.980;9.646;2023-06-22T12:20:11;25.00;99.90
28725;DHT22;43472;48.980;9.646;2023-06-22T12:25:14;23.80;99.90
28725;DHT22;43472;48.980;9.646;2023-06-22T12:30:16;23.40;99.90
28725;DHT22;43472;48.980;9.646;2023-06-22T12:35:18;23.40;99.90
28725;DHT22;43472;48.980;9.646;2023-06-22T12:40:23;23.80;99.90
28725;DHT22;43472;48.980;9.646;2023-06-22T12:45:25;23.70;99.90
28725;DHT22;43472;48.980;9.646;2023-06-22T12:50:30;23.50;99.90
28725;DHT22;43472;48.980;9.646;2023-06-22T12:55:34;23.50;99.90
28725;DHT22;43472;48.980;9.646;2023-06-22T13:00:38;23.30;99.90
28725;DHT22;43472;48.980;9.646;2023-06-22T13:05:40;23.40;99.90
28725;DHT22;43472;48.980;9.646;2023-06-22T13:10:42;23.30;99.90
28725;DHT22;43472;48.980;9.646;2023-06-22T13:15:44;23.30;99.90
28725;DHT22;43472;48.980;9.646;2023-06-22T13:20:47;23.20;99.90
28725;DHT22;43472;48.980;9.646;2023-06-22T13:25:50;23.30;99.90
28725;DHT22;43472;48.980;9.646;2023-06-22T13:30:52;23.70;99.90
28725;DHT22;43472;48.980;9.646;2023-06-22T13:36:11;24.20;99.90
28725;DHT22;43472;48.980;9.646;2023-06-22T13:41:30;23.50;99.90
28725;DHT22;43472;48.980;9.646;2023-06-22T13:46:32;24.30;99.90
28725;DHT22;43472;48.980;9.646;2023-06-22T13:51:36;24.90;99.90
28725;DHT22;43472;48.980;9.646;2023-06-22T13:56:38;24.00;99.90
28725;DHT22;43472;48.980;9.646;2023-06-22T14:06:43;23.90;99.90
28725;DHT22;43472;48.980;9.646;2023-06-22T14:11:46;23.50;99.90
28725;DHT22;43472;48.980;9.646;2023-06-22T14:16:49;23.60;99.90
28725;DHT22;43472;48.980;9.646;2023-06-22T14:21:51;25.00;99.90
28725;DHT22;43472;48.980;9.646;2023-06-22T14:26:54;24.10;99.90
28725;DHT22;43472;48.980;9.646;2023-06-22T14:31:56;23.80;99.90
28725;DHT22;43472;48.980;9.646;2023-06-22T14:36:58;24.20;99.90
28725;DHT22;43472;48.980;9.646;2023-06-22T14:42:01;24.50;99.90
28725;DHT22;43472;48.980;9.646;2023-06-22T14:47:05;23.80;99.90
28725;DHT22;43472;48.980;9.646;2023-06-22T14:52:07;25.80;99.90
28725;DHT22;43472;48.980;9.646;2023-06-22T14:57:09;23.80;99.90
28725;DHT22;43472;48.980;9.646;2023-06-22T15:02:11;23.90;99.90
28725;DHT22;43472;48.980;9.646;2023-06-22T15:07:13;26.30;99.90
28725;DHT22;43472;48.980;9.646;2023-06-22T15:12:15;24.60;99.90
28725;DHT22;43472;48.980;9.646;2023-06-22T15:17:17;29.10;99.90
28725;DHT22;43472;48.980;9.646;2023-06-22T15:22:19;29.00;99.90
28725;DHT22;43472;48.980;9.646;2023-06-22T15:27:21;30.40;99.90
28725;DHT22;43472;48.980;9.646;2023-06-22T15:32:24;30.20;99.90
28725;DHT22;43472;48.980;9.646;2023-06-22T15:37:28;28.80;99.90
28725;DHT22;43472;48.980;9.646;2023-06-22T15:42:30;28.80;99.90
28725;DHT22;43472;48.980;9.646;2023-06-22T15:47:35;30.80;99.70
28725;DHT22;43472;48.980;9.646;2023-06-22T15:52:40;30.70;99.90
28725;DHT22;43472;48.980;9.646;2023-06-22T15:57:42;28.90;99.90
28725;DHT22;43472;48.980;9.646;2023-06-22T16:02:48;30.40;99.90
28725;DHT22;43472;48.980;9.646;2023-06-22T16:07:50;29.90;99.30
28725;DHT22;43472;48.980;9.646;2023-06-22T16:12:53;29.40;99.90
28725;DHT22;43472;48.980;9.646;2023-06-22T16:17:55;28.50;99.90
28725;DHT22;43472;48.980;9.646;2023-06-22T16:22:57;28.80;99.90
28725;DHT22;43472;48.980;9.646;2023-06-22T16:27:59;28.30;99.90
28725;DHT22;43472;48.980;9.646;2023-06-22T16:33:02;26.70;99.90
28725;DHT22;43472;48.980;9.646;2023-06-22T16:38:04;26.30;99.90
28725;DHT22;43472;48.980;9.646;2023-06-22T16:43:06;25.10;99.90
28725;DHT22;43472;48.980;9.646;2023-06-22T16:48:09;25.30;99.90
28725;DHT22;43472;48.980;9.646;2023-06-22T16:53:11;28.00;99.60
28725;DHT22;43472;48.980;9.646;2023-06-22T16:58:13;27.10;99.90
28725;DHT22;43472;48.980;9.646;2023-06-22T17:03:29;27.00;99.90
28725;DHT22;43472;48.980;9.646;2023-06-22T17:08:32;26.60;99.90
28725;DHT22;43472;48.980;9.646;2023-06-22T17:13:36;25.50;99.90
28725;DHT22;43472;48.980;9.646;2023-06-22T17:18:39;26.70;99.90
28725;DHT22;43472;48.980;9.646;2023-06-22T17:23:41;27.40;99.60
28725;DHT22;43472;48.980;9.646;2023-06-22T17:28:51;26.20;99.90
28725;DHT22;43472;48.980;9.646;2023-06-22T17:33:55;27.80;97.90
28725;DHT22;43472;48.980;9.646;2023-06-22T17:39:00;27.90;96.30
28725;DHT22;43472;48.980;9.646;2023-06-22T17:44:04;27.10;98.20
28725;DHT22;43472;48.980;9.646;2023-06-22T17:49:08;27.70;96.20
28725;DHT22;43472;48.980;9.646;2023-06-22T17:54:12;27.40;97.20
28725;DHT22;43472;48.980;9.646;2023-06-22T17:59:14;26.50;99.90
28725;DHT22;43472;48.980;9.646;2023-06-22T18:04:19;27.10;97.70
28725;DHT22;43472;48.980;9.646;2023-06-22T18:09:22;27.20;97.10
28725;DHT22;43472;48.980;9.646;2023-06-22T18:14:24;27.30;98.30
28725;DHT22;43472;48.980;9.646;2023-06-22T18:19:26;26.90;97.80
28725;DHT22;43472;48.980;9.646;2023-06-22T18:24:30;27.50;97.00
28725;DHT22;43472;48.980;9.646;2023-06-22T18:29:35;27.10;97.10
28725;DHT22;43472;48.980;9.646;2023-06-22T18:34:41;27.10;97.30
28725;DHT22;43472;48.980;9.646;2023-06-22T18:39:45;27.10;96.50
28725;DHT22;43472;48.980;9.646;2023-06-22T18:44:55;26.90;96.90
28725;DHT22;43472;48.980;9.646;2023-06-22T18:50:07;26.90;97.00
28725;DHT22;43472;48.980;9.646;2023-06-22T18:55:13;26.70;96.80
28725;DHT22;43472;48.980;9.646;2023-06-22T19:00:15;26.60;95.50
28725;DHT22;43472;48.980;9.646;2023-06-22T19:10:42;25.70;97.00
28725;DHT22;43472;48.980;9.646;2023-06-22T19:15:47;25.40;98.10
28725;DHT22;43472;48.980;9.646;2023-06-22T19:21:00;25.40;98.40
28725;DHT22;43472;48.980;9.646;2023-06-22T19:26:09;25.10;98.20
28725;DHT22;43472;48.980;9.646;2023-06-22T19:31:12;25.30;98.60
28725;DHT22;43472;48.980;9.646;2023-06-22T19:36:19;25.30;98.50
28725;DHT22;43472;48.980;9.646;2023-06-22T19:41:22;25.10;98.60
28725;DHT22;43472;48.980;9.646;2023-06-22T19:46:31;25.10;98.50
28725;DHT22;43472;48.980;9.646;2023-06-22T19:51:35;25.10;98.70
28725;DHT22;43472;48.980;9.646;2023-06-22T19:56:38;24.90;99.20
28725;DHT22;43472;48.980;9.646;2023-06-22T20:01:41;24.80;99.30
28725;DHT22;43472;48.980;9.646;2023-06-22T20:07:04;24.60;99.40
28725;DHT22;43472;48.980;9.646;2023-06-22T20:12:35;24.50;99.90
28725;DHT22;43472;48.980;9.646;2023-06-22T20:17:40;24.40;99.90
28725;DHT22;43472;48.980;9.646;2023-06-22T20:22:43;24.30;99.90
28725;DHT22;43472;48.980;9.646;2023-06-22T20:27:49;24.10;99.90
28725;DHT22;43472;48.980;9.646;2023-06-22T20:32:53;24.00;99.90
28725;DHT22;43472;48.980;9.646;2023-06-22T20:37:55;23.90;99.90
28725;DHT22;43472;48.980;9.646;2023-06-22T20:43:01;23.90;99.90
28725;DHT22;43472;48.980;9.646;2023-06-22T20:48:04;23.90;99.90
28725;DHT22;43472;48.980;9.646;2023-06-22T20:53:08;23.90;99.90
28725;DHT22;43472;48.980;9.646;2023-06-22T20:58:10;23.80;99.90
28725;DHT22;43472;48.980;9.646;2023-06-22T21:03:13;23.70;99.90
28725;DHT22;43472;48.980;9.646;2023-06-22T21:08:15;23.50;99.90
28725;DHT22;43472;48.980;9.646;2023-06-22T21:13:18;23.60;99.90
28725;DHT22;43472;48.980;9.646;2023-06-22T21:18:21;23.40;99.90
28725;DHT22;43472;48.980;9.646;2023-06-22T21:23:24;23.40;99.90
28725;DHT22;43472;48.980;9.646;2023-06-22T21:28:26;22.80;99.90
28725;DHT22;43472;48.980;9.646;2023-06-22T21:33:28;22.70;99.90
28725;DHT22;43472;48.980;9.646;2023-06-22T21:38:30;22.40;99.90
28725;DHT22;43472;48.980;9.646;2023-06-22T21:43:34;22.30;99.90
28725;DHT22;43472;48.980;9.646;2023-06-22T21:48:38;22.00;99.90
28725;DHT22;43472;48.980;9.646;2023-06-22T21:53:40;21.60;99.90
28725;DHT22;43472;48.980;9.646;2023-06-22T21:58:42;21.20;99.90
28725;DHT22;43472;48.980;9.646;2023-06-22T22:03:44;21.30;99.90
28725;DHT22;43472;48.980;9.646;2023-06-22T22:08:46;21.40;99.90
28725;DHT22;43472;48.980;9.646;2023-06-22T22:13:51;21.00;99.90
28725;DHT22;43472;48.980;9.646;2023-06-22T22:18:55;20.90;99.90
28725;DHT22;43472;48.980;9.646;2023-06-22T22:23:58;20.90;99.90
28725;DHT22;43472;48.980;9.646;2023-06-22T22:29:02;20.90;99.90
28725;DHT22;43472;48.980;9.646;2023-06-22T22:34:05;21.00;99.90
28725;DHT22;43472;48.980;9.646;2023-06-22T22:39:08;20.60;99.90
28725;DHT22;43472;48.980;9.646;2023-06-22T22:44:13;20.70;99.90
28725;DHT22;43472;48.980;9.646;2023-06-22T22:49:15;20.50;99.90
28725;DHT22;43472;48.980;9.646;2023-06-22T22:54:17;20.40;99.90
28725;DHT22;43472;48.980;9.646;2023-06-22T22:59:20;20.40;99.90
28725;DHT22;43472;48.980;9.646;2023-06-22T23:04:22;20.30;99.90
28725;DHT22;43472;48.980;9.646;2023-06-22T23:09:25;20.30;99.90
28725;DHT22;43472;48.980;9.646;2023-06-22T23:14:30;20.20;99.90
28725;DHT22;43472;48.980;9.646;2023-06-22T23:19:33;20.00;99.90
28725;DHT22;43472;48.980;9.646;2023-06-22T23:24:35;20.10;99.90
28725;DHT22;43472;48.980;9.646;2023-06-22T23:29:38;20.10;99.90
28725;DHT22;43472;48.980;9.646;2023-06-22T23:34:41;20.20;99.90
28725;DHT22;43472;48.980;9.646;2023-06-22T23:39:46;20.40;99.90
28725;DHT22;43472;48.980;9.646;2023-06-22T23:44:48;20.40;99.90
28725;DHT22;43472;48.980;9.646;2023-06-22T23:49:53;20.20;99.90
28725;DHT22;43472;48.980;9.646;2023-06-22T23:54:55;20.20;99.90
28725;DHT22;43472;48.980;9.646;2023-06-22T23:59:56;20.10;99.90
